Jersey Village, Texas
Current Conditions -  °F | °C
As of 2:55 PM on Tuesday 27 Jan 2015 (Local Time) from KMCJ Reporting Station
Clear Clear  
Wind Chill: 81°   Ceiling: Unl
Heat Index: 81°   Visibility: 10mi
Dew Point: 41°   Wind: 5mph
Humidity: 24%   Direction: 280°W
Pressure: 30.07"   Gusts: NA
Location:  29.8565°N, 95.5841°W
Report Text: KMCJ 272055Z AUTO 28004KT 10SM CLR 27/05 A3007 RMK AO1
Loading
Personal Weather Stations






























Interactive Weather Map New forecast layout! Learn more

10-Day Weather Forecast

Advertisements
Track Severe Weather on mobile